ABW502 UIII-UNNT
Flight info
| Callsign | ABW502 |
|---|---|
| Flight time | 2h 5m |
| Altitude | 32000 |
| Route | K0896F320 KA A91 SUKOR A817 RO B151 KESED B926 NATIR |
| Aircraft | B77L/H-SDE1E2E3FGHIJ2J3J4J5M1RWXY/LB1D1 |
Departure
| Time | 2026-04-29 13:37 |
|---|---|
| Airport | Irkutsk International Airport (UIII) |
Arrival
| Time | 2026-04-29 15:42 |
|---|---|
| Airport | Novosibirsk Tolmachevo Airport (UNNT) |
| Time | Latitude | Longitude | Altitude | Speed | Heading |
|---|---|---|---|---|---|
| 2026-04-29 12:33 | 52.26661 | 104.37908 | 1606 ft | 0 kts | 309° |
| 2026-04-29 12:50 | 52.26661 | 104.37907 | 1606 ft | 0 kts | 309° |
| 2026-04-29 12:51 | 52.26661 | 104.37908 | 1605 ft | 0 kts | 309° |
| 2026-04-29 13:24 | 52.26662 | 104.37906 | 1605 ft | 1 kts | 309° |
| 2026-04-29 13:25 | 52.26671 | 104.37887 | 1613 ft | 1 kts | 304° |
| 2026-04-29 13:25 | 52.26692 | 104.37832 | 1609 ft | 4 kts | 302° |
| 2026-04-29 13:25 | 52.26710 | 104.37798 | 1602 ft | 3 kts | 321° |
| 2026-04-29 13:26 | 52.26740 | 104.37797 | 1600 ft | 5 kts | 21° |
| 2026-04-29 13:26 | 52.26765 | 104.37834 | 1605 ft | 2 kts | 47° |
| 2026-04-29 13:26 | 52.26766 | 104.37834 | 1605 ft | 0 kts | 47° |
| 2026-04-29 13:27 | 52.26776 | 104.37855 | 1613 ft | 5 kts | 50° |
| 2026-04-29 13:27 | 52.26804 | 104.37909 | 1613 ft | 7 kts | 49° |
| 2026-04-29 13:28 | 52.26811 | 104.37988 | 1615 ft | 8 kts | 103° |
| 2026-04-29 13:28 | 52.26790 | 104.38080 | 1609 ft | 9 kts | 112° |
| 2026-04-29 13:28 | 52.26763 | 104.38182 | 1615 ft | 10 kts | 114° |
| 2026-04-29 13:28 | 52.26732 | 104.38297 | 1619 ft | 12 kts | 113° |
| 2026-04-29 13:29 | 52.26700 | 104.38420 | 1622 ft | 12 kts | 113° |
| 2026-04-29 13:29 | 52.26663 | 104.38557 | 1624 ft | 14 kts | 114° |
| 2026-04-29 13:29 | 52.26625 | 104.38700 | 1630 ft | 14 kts | 114° |
| 2026-04-29 13:29 | 52.26587 | 104.38843 | 1638 ft | 14 kts | 113° |
| 2026-04-29 13:30 | 52.26549 | 104.38987 | 1645 ft | 14 kts | 113° |
| 2026-04-29 13:30 | 52.26511 | 104.39130 | 1648 ft | 14 kts | 113° |
| 2026-04-29 13:30 | 52.26470 | 104.39281 | 1647 ft | 16 kts | 113° |
| 2026-04-29 13:30 | 52.26425 | 104.39453 | 1647 ft | 17 kts | 113° |
| 2026-04-29 13:31 | 52.26378 | 104.39629 | 1651 ft | 17 kts | 114° |
| 2026-04-29 13:31 | 52.26331 | 104.39805 | 1672 ft | 17 kts | 113° |
| 2026-04-29 13:31 | 52.26288 | 104.39966 | 1663 ft | 15 kts | 113° |
| 2026-04-29 13:31 | 52.26246 | 104.40123 | 1673 ft | 15 kts | 114° |
| 2026-04-29 13:32 | 52.26205 | 104.40280 | 1676 ft | 15 kts | 113° |
| 2026-04-29 13:32 | 52.26167 | 104.40424 | 1678 ft | 12 kts | 113° |
| 2026-04-29 13:32 | 52.26134 | 104.40545 | 1682 ft | 12 kts | 114° |
| 2026-04-29 13:32 | 52.26103 | 104.40666 | 1685 ft | 12 kts | 113° |
| 2026-04-29 13:33 | 52.26070 | 104.40786 | 1681 ft | 12 kts | 114° |
| 2026-04-29 13:33 | 52.26038 | 104.40907 | 1686 ft | 12 kts | 113° |
| 2026-04-29 13:33 | 52.26007 | 104.41025 | 1690 ft | 11 kts | 113° |
| 2026-04-29 13:33 | 52.26004 | 104.41137 | 1685 ft | 10 kts | 64° |
| 2026-04-29 13:34 | 52.26059 | 104.41206 | 1698 ft | 9 kts | 31° |
| 2026-04-29 13:34 | 52.26089 | 104.41226 | 1698 ft | 0 kts | 21° |
| 2026-04-29 13:35 | 52.26105 | 104.41236 | 1699 ft | 7 kts | 22° |
| 2026-04-29 13:35 | 52.26179 | 104.41291 | 1699 ft | 13 kts | 23° |
| 2026-04-29 13:35 | 52.26212 | 104.41306 | 1697 ft | 3 kts | 353° |
| 2026-04-29 13:36 | 52.26237 | 104.41256 | 1698 ft | 2 kts | 291° |
| 2026-04-29 13:36 | 52.26239 | 104.41250 | 1697 ft | 4 kts | 291° |
| 2026-04-29 13:36 | 52.26243 | 104.41233 | 1697 ft | 0 kts | 292° |
| 2026-04-29 13:36 | 52.26251 | 104.41200 | 1700 ft | 17 kts | 292° |
| 2026-04-29 13:37 | 52.26406 | 104.40623 | 1691 ft | 93 kts | 293° |
| 2026-04-29 13:37 | 52.26764 | 104.39282 | 1639 ft | 161 kts | 294° |
| 2026-04-29 13:37 | 52.27284 | 104.37410 | 1845 ft | 186 kts | 294° |
| 2026-04-29 13:37 | 52.27812 | 104.35509 | 2585 ft | 182 kts | 295° |
| 2026-04-29 13:38 | 52.28293 | 104.33659 | 3455 ft | 175 kts | 296° |
| 2026-04-29 13:38 | 52.28780 | 104.31763 | 3715 ft | 194 kts | 297° |
| 2026-04-29 13:38 | 52.29544 | 104.29881 | 3874 ft | 210 kts | 326° |
| 2026-04-29 13:38 | 52.30978 | 104.29234 | 4214 ft | 227 kts | 2° |
| 2026-04-29 13:39 | 52.32523 | 104.30158 | 4708 ft | 247 kts | 28° |
| 2026-04-29 13:39 | 52.33970 | 104.31938 | 5082 ft | 269 kts | 36° |
| 2026-04-29 13:39 | 52.35389 | 104.33939 | 5746 ft | 277 kts | 37° |
| 2026-04-29 13:39 | 52.36866 | 104.36076 | 6264 ft | 293 kts | 37° |
| 2026-04-29 13:40 | 52.38483 | 104.38412 | 6493 ft | 319 kts | 37° |
| 2026-04-29 13:40 | 52.40171 | 104.40844 | 6976 ft | 332 kts | 37° |
| 2026-04-29 13:40 | 52.41926 | 104.43371 | 7701 ft | 339 kts | 37° |
| 2026-04-29 13:40 | 52.43714 | 104.45937 | 8517 ft | 343 kts | 37° |
| 2026-04-29 13:41 | 52.45519 | 104.48518 | 9369 ft | 346 kts | 37° |
| 2026-04-29 13:41 | 52.47343 | 104.51120 | 10208 ft | 349 kts | 37° |
| 2026-04-29 13:41 | 52.49192 | 104.53755 | 10900 ft | 355 kts | 37° |
| 2026-04-29 13:41 | 52.51071 | 104.56428 | 11635 ft | 360 kts | 37° |
| 2026-04-29 13:42 | 52.52977 | 104.59142 | 12460 ft | 365 kts | 38° |
| 2026-04-29 13:42 | 52.54905 | 104.61890 | 13353 ft | 369 kts | 38° |
| 2026-04-29 13:42 | 52.56860 | 104.64680 | 14189 ft | 375 kts | 38° |
| 2026-04-29 13:42 | 52.58841 | 104.67509 | 14921 ft | 380 kts | 38° |
| 2026-04-29 13:43 | 52.60843 | 104.70374 | 15703 ft | 384 kts | 38° |
| 2026-04-29 13:43 | 52.62867 | 104.73272 | 16475 ft | 387 kts | 38° |
| 2026-04-29 13:43 | 52.64911 | 104.76204 | 17240 ft | 392 kts | 38° |
| 2026-04-29 13:43 | 52.66977 | 104.79169 | 17977 ft | 396 kts | 38° |
| 2026-04-29 13:44 | 52.69063 | 104.82168 | 18686 ft | 401 kts | 38° |
| 2026-04-29 13:44 | 52.71179 | 104.85214 | 19292 ft | 406 kts | 38° |
| 2026-04-29 13:44 | 52.73317 | 104.88295 | 19890 ft | 411 kts | 38° |
| 2026-04-29 13:44 | 52.75480 | 104.91417 | 20320 ft | 416 kts | 38° |
| 2026-04-29 13:45 | 52.77667 | 104.94577 | 20282 ft | 418 kts | 38° |
| 2026-04-29 13:45 | 52.79846 | 104.97734 | 20285 ft | 414 kts | 38° |
| 2026-04-29 13:45 | 52.82007 | 105.00868 | 20286 ft | 413 kts | 38° |
| 2026-04-29 13:45 | 52.84164 | 105.03998 | 20285 ft | 413 kts | 38° |
| 2026-04-29 13:46 | 52.85627 | 105.06121 | 20290 ft | 414 kts | 38° |
| 2026-04-29 13:46 | 52.87797 | 105.09230 | 20286 ft | 409 kts | 34° |
| 2026-04-29 13:46 | 52.90262 | 105.11460 | 20289 ft | 403 kts | 15° |
| 2026-04-29 13:46 | 52.93023 | 105.12152 | 20606 ft | 402 kts | 357° |
| 2026-04-29 13:47 | 52.95793 | 105.11492 | 21190 ft | 404 kts | 342° |
| 2026-04-29 13:47 | 52.98359 | 105.09597 | 21823 ft | 406 kts | 327° |
| 2026-04-29 13:47 | 53.00557 | 105.06654 | 22474 ft | 409 kts | 313° |
| 2026-04-29 13:47 | 53.02142 | 105.02739 | 23027 ft | 412 kts | 298° |
| 2026-04-29 13:48 | 53.03433 | 104.98441 | 23472 ft | 419 kts | 297° |
| 2026-04-29 13:48 | 53.04722 | 104.94080 | 24007 ft | 423 kts | 297° |
| 2026-04-29 13:48 | 53.06030 | 104.89689 | 24578 ft | 424 kts | 298° |
| 2026-04-29 13:48 | 53.07353 | 104.85304 | 25124 ft | 426 kts | 298° |
| 2026-04-29 13:49 | 53.08699 | 104.80894 | 25622 ft | 429 kts | 298° |
| 2026-04-29 13:49 | 53.10041 | 104.76519 | 26072 ft | 432 kts | 298° |
| 2026-04-29 13:49 | 53.11414 | 104.72050 | 26541 ft | 435 kts | 298° |
| 2026-04-29 13:49 | 53.12799 | 104.67537 | 27006 ft | 439 kts | 298° |
| 2026-04-29 13:50 | 53.14187 | 104.63001 | 27475 ft | 442 kts | 298° |
| 2026-04-29 13:50 | 53.15590 | 104.58424 | 27922 ft | 445 kts | 298° |
| 2026-04-29 13:50 | 53.17037 | 104.53851 | 28364 ft | 448 kts | 299° |
| 2026-04-29 13:50 | 53.18518 | 104.49261 | 28787 ft | 451 kts | 300° |
| 2026-04-29 13:51 | 53.20016 | 104.44636 | 29193 ft | 454 kts | 300° |
| 2026-04-29 13:51 | 53.21520 | 104.39981 | 29593 ft | 458 kts | 300° |
| 2026-04-29 13:51 | 53.23028 | 104.35286 | 29963 ft | 460 kts | 300° |
| 2026-04-29 13:51 | 53.24534 | 104.30575 | 30442 ft | 460 kts | 300° |
| 2026-04-29 13:52 | 53.26033 | 104.25865 | 30935 ft | 458 kts | 300° |
| 2026-04-29 13:52 | 53.27521 | 104.21178 | 31419 ft | 456 kts | 299° |
| 2026-04-29 13:52 | 53.29002 | 104.16502 | 31889 ft | 454 kts | 299° |
| 2026-04-29 13:52 | 53.30478 | 104.11837 | 32290 ft | 454 kts | 299° |
| 2026-04-29 13:53 | 53.33446 | 104.02428 | 32298 ft | 457 kts | 299° |
| 2026-04-29 13:53 | 53.36392 | 103.93055 | 32295 ft | 453 kts | 299° |
| 2026-04-29 13:54 | 53.39355 | 103.83731 | 32302 ft | 453 kts | 301° |
| 2026-04-29 13:54 | 53.42518 | 103.74612 | 32303 ft | 453 kts | 302° |
| 2026-04-29 13:55 | 53.45693 | 103.65480 | 32304 ft | 454 kts | 302° |
| 2026-04-29 13:55 | 53.48836 | 103.56281 | 32305 ft | 455 kts | 302° |
| 2026-04-29 13:56 | 53.51970 | 103.47052 | 32311 ft | 455 kts | 302° |
| 2026-04-29 13:56 | 53.55101 | 103.37791 | 32308 ft | 455 kts | 302° |
| 2026-04-29 13:57 | 53.58223 | 103.28523 | 32314 ft | 455 kts | 302° |
| 2026-04-29 13:57 | 53.61339 | 103.19241 | 32320 ft | 456 kts | 302° |
| 2026-04-29 13:58 | 53.64449 | 103.09941 | 32322 ft | 456 kts | 302° |
| 2026-04-29 13:58 | 53.67553 | 103.00624 | 32323 ft | 456 kts | 302° |
| 2026-04-29 13:59 | 53.70657 | 102.91269 | 32333 ft | 456 kts | 302° |
| 2026-04-29 13:59 | 53.73752 | 102.81907 | 32336 ft | 456 kts | 302° |
| 2026-04-29 14:00 | 53.76839 | 102.72534 | 32337 ft | 457 kts | 302° |
| 2026-04-29 14:00 | 53.79921 | 102.63143 | 32340 ft | 457 kts | 302° |
| 2026-04-29 14:01 | 53.83001 | 102.53737 | 32340 ft | 457 kts | 302° |
| 2026-04-29 14:01 | 53.86078 | 102.44315 | 32344 ft | 457 kts | 302° |
| 2026-04-29 14:02 | 53.89154 | 102.34859 | 32348 ft | 458 kts | 302° |
| 2026-04-29 14:02 | 53.92222 | 102.25385 | 32360 ft | 459 kts | 302° |
| 2026-04-29 14:03 | 53.95283 | 102.15898 | 32359 ft | 459 kts | 302° |
| 2026-04-29 14:03 | 53.98339 | 102.06390 | 32359 ft | 458 kts | 302° |
| 2026-04-29 14:04 | 54.01390 | 101.96866 | 32370 ft | 458 kts | 302° |
| 2026-04-29 14:04 | 54.04433 | 101.87336 | 32371 ft | 459 kts | 302° |
| 2026-04-29 14:05 | 54.07475 | 101.77782 | 32371 ft | 459 kts | 302° |
| 2026-04-29 14:05 | 54.10509 | 101.68214 | 32364 ft | 459 kts | 302° |
| 2026-04-29 14:06 | 54.13538 | 101.58626 | 32366 ft | 459 kts | 302° |
| 2026-04-29 14:06 | 54.16557 | 101.49028 | 32367 ft | 459 kts | 302° |
| 2026-04-29 14:07 | 54.19568 | 101.39417 | 32370 ft | 459 kts | 302° |
| 2026-04-29 14:07 | 54.22575 | 101.29783 | 32370 ft | 459 kts | 302° |
| 2026-04-29 14:08 | 54.25573 | 101.20135 | 32364 ft | 460 kts | 302° |
| 2026-04-29 14:08 | 54.28564 | 101.10473 | 32366 ft | 460 kts | 302° |
| 2026-04-29 14:09 | 54.31549 | 101.00792 | 32367 ft | 460 kts | 302° |
| 2026-04-29 14:09 | 54.34526 | 100.91098 | 32363 ft | 460 kts | 302° |
| 2026-04-29 14:10 | 54.37497 | 100.81384 | 32370 ft | 460 kts | 302° |
| 2026-04-29 14:10 | 54.40460 | 100.71655 | 32363 ft | 460 kts | 302° |
| 2026-04-29 14:11 | 54.43415 | 100.61912 | 32364 ft | 460 kts | 302° |
| 2026-04-29 14:11 | 54.46363 | 100.52154 | 32362 ft | 460 kts | 302° |
| 2026-04-29 14:12 | 54.49305 | 100.42376 | 32359 ft | 460 kts | 302° |
| 2026-04-29 14:12 | 54.52238 | 100.32586 | 32365 ft | 460 kts | 302° |
| 2026-04-29 14:13 | 54.55142 | 100.22850 | 32368 ft | 460 kts | 302° |
| 2026-04-29 14:13 | 54.58060 | 100.13035 | 32370 ft | 460 kts | 302° |
| 2026-04-29 14:14 | 54.60968 | 100.03208 | 32368 ft | 460 kts | 302° |
| 2026-04-29 14:14 | 54.63866 | 99.93371 | 32369 ft | 460 kts | 301° |
| 2026-04-29 14:15 | 54.66754 | 99.83527 | 32373 ft | 459 kts | 301° |
| 2026-04-29 14:15 | 54.69633 | 99.73676 | 32374 ft | 459 kts | 301° |
| 2026-04-29 14:16 | 54.72495 | 99.63843 | 32377 ft | 458 kts | 301° |
| 2026-04-29 14:16 | 54.75356 | 99.53970 | 32374 ft | 458 kts | 301° |
| 2026-04-29 14:17 | 54.78199 | 99.44119 | 32371 ft | 458 kts | 301° |
| 2026-04-29 14:17 | 54.81039 | 99.34235 | 32370 ft | 457 kts | 301° |
| 2026-04-29 14:18 | 54.83864 | 99.24358 | 32369 ft | 457 kts | 301° |
| 2026-04-29 14:18 | 54.86679 | 99.14488 | 32376 ft | 457 kts | 301° |
| 2026-04-29 14:19 | 54.89096 | 99.04245 | 32382 ft | 462 kts | 292° |
| 2026-04-29 14:19 | 54.90520 | 98.93268 | 32388 ft | 467 kts | 285° |
| 2026-04-29 14:20 | 54.91687 | 98.82149 | 32376 ft | 468 kts | 285° |
| 2026-04-29 14:20 | 54.92860 | 98.71024 | 32387 ft | 468 kts | 285° |
| 2026-04-29 14:21 | 54.94047 | 98.59905 | 32381 ft | 468 kts | 285° |
| 2026-04-29 14:21 | 54.95234 | 98.48765 | 32394 ft | 468 kts | 285° |
| 2026-04-29 14:22 | 54.96411 | 98.37627 | 32392 ft | 468 kts | 285° |
| 2026-04-29 14:22 | 54.97577 | 98.26479 | 32402 ft | 468 kts | 285° |
| 2026-04-29 14:23 | 54.98732 | 98.15321 | 32402 ft | 468 kts | 285° |
| 2026-04-29 14:23 | 54.99878 | 98.04161 | 32405 ft | 468 kts | 285° |
| 2026-04-29 14:24 | 55.01013 | 97.93000 | 32407 ft | 468 kts | 285° |
| 2026-04-29 14:24 | 55.02138 | 97.81823 | 32407 ft | 468 kts | 285° |
| 2026-04-29 14:25 | 55.03252 | 97.70638 | 32402 ft | 469 kts | 285° |
| 2026-04-29 14:25 | 55.04357 | 97.59446 | 32406 ft | 469 kts | 285° |
| 2026-04-29 14:26 | 55.05455 | 97.48219 | 32404 ft | 469 kts | 285° |
| 2026-04-29 14:26 | 55.06359 | 97.38889 | 32406 ft | 470 kts | 285° |
| 2026-04-29 14:27 | 55.07618 | 97.25755 | 32406 ft | 469 kts | 284° |
| 2026-04-29 14:28 | 55.09036 | 97.10791 | 32410 ft | 470 kts | 284° |
| 2026-04-29 14:28 | 55.10047 | 96.99513 | 32416 ft | 470 kts | 284° |
| 2026-04-29 14:29 | 55.11010 | 96.88215 | 32415 ft | 471 kts | 284° |
| 2026-04-29 14:29 | 55.11967 | 96.76903 | 32413 ft | 471 kts | 284° |
| 2026-04-29 14:30 | 55.12918 | 96.65595 | 32414 ft | 471 kts | 284° |
| 2026-04-29 14:30 | 55.13863 | 96.54276 | 32417 ft | 471 kts | 284° |
| 2026-04-29 14:31 | 55.14797 | 96.42951 | 32424 ft | 471 kts | 284° |
| 2026-04-29 14:31 | 55.15720 | 96.31622 | 32411 ft | 471 kts | 284° |
| 2026-04-29 14:32 | 55.16633 | 96.20293 | 32413 ft | 470 kts | 284° |
| 2026-04-29 14:32 | 55.17535 | 96.08967 | 32427 ft | 470 kts | 283° |
| 2026-04-29 14:33 | 55.18428 | 95.97617 | 32430 ft | 471 kts | 283° |
| 2026-04-29 14:33 | 55.19309 | 95.86276 | 32423 ft | 471 kts | 283° |
| 2026-04-29 14:34 | 55.20180 | 95.74905 | 32415 ft | 471 kts | 283° |
| 2026-04-29 14:34 | 55.21040 | 95.63548 | 32417 ft | 471 kts | 283° |
| 2026-04-29 14:35 | 55.21889 | 95.52195 | 32416 ft | 470 kts | 283° |
| 2026-04-29 14:35 | 55.22728 | 95.40834 | 32413 ft | 470 kts | 283° |
| 2026-04-29 14:36 | 55.23557 | 95.29459 | 32415 ft | 470 kts | 283° |
| 2026-04-29 14:36 | 55.24374 | 95.18086 | 32414 ft | 471 kts | 283° |
| 2026-04-29 14:37 | 55.25182 | 95.06713 | 32418 ft | 470 kts | 283° |
| 2026-04-29 14:37 | 55.25981 | 94.95322 | 32418 ft | 470 kts | 283° |
| 2026-04-29 14:38 | 55.26782 | 94.83951 | 32421 ft | 470 kts | 283° |
| 2026-04-29 14:38 | 55.27698 | 94.72626 | 32417 ft | 469 kts | 284° |
| 2026-04-29 14:39 | 55.28637 | 94.61311 | 32420 ft | 469 kts | 284° |
| 2026-04-29 14:39 | 55.29552 | 94.49989 | 32415 ft | 468 kts | 284° |
| 2026-04-29 14:40 | 55.30445 | 94.38674 | 32416 ft | 468 kts | 283° |
| 2026-04-29 14:40 | 55.31323 | 94.27357 | 32420 ft | 468 kts | 283° |
| 2026-04-29 14:41 | 55.32191 | 94.16044 | 32423 ft | 467 kts | 283° |
| 2026-04-29 14:41 | 55.33048 | 94.04735 | 32414 ft | 467 kts | 283° |
| 2026-04-29 14:42 | 55.33895 | 93.93429 | 32416 ft | 467 kts | 283° |
| 2026-04-29 14:42 | 55.34730 | 93.82114 | 32412 ft | 467 kts | 283° |
| 2026-04-29 14:43 | 55.35557 | 93.70792 | 32411 ft | 467 kts | 283° |
| 2026-04-29 14:43 | 55.36372 | 93.59484 | 32411 ft | 466 kts | 283° |
| 2026-04-29 14:44 | 55.37176 | 93.48176 | 32407 ft | 466 kts | 283° |
| 2026-04-29 14:44 | 55.37967 | 93.36870 | 32401 ft | 466 kts | 283° |
| 2026-04-29 14:45 | 55.38747 | 93.25579 | 32406 ft | 465 kts | 283° |
| 2026-04-29 14:45 | 55.39517 | 93.14292 | 32397 ft | 465 kts | 283° |
| 2026-04-29 14:46 | 55.40275 | 93.03021 | 32392 ft | 464 kts | 283° |
| 2026-04-29 14:46 | 55.41024 | 92.91745 | 32400 ft | 464 kts | 283° |
| 2026-04-29 14:47 | 55.41761 | 92.80459 | 32382 ft | 465 kts | 282° |
| 2026-04-29 14:47 | 55.42489 | 92.69157 | 32379 ft | 464 kts | 282° |
| 2026-04-29 14:48 | 55.43207 | 92.57874 | 32394 ft | 464 kts | 282° |
| 2026-04-29 14:48 | 55.43915 | 92.46577 | 32388 ft | 464 kts | 282° |
| 2026-04-29 14:49 | 55.44622 | 92.35281 | 32385 ft | 464 kts | 282° |
| 2026-04-29 14:49 | 55.45323 | 92.23984 | 32378 ft | 464 kts | 282° |
| 2026-04-29 14:50 | 55.46007 | 92.12759 | 32379 ft | 464 kts | 282° |
| 2026-04-29 14:50 | 55.46691 | 92.01369 | 32378 ft | 464 kts | 282° |
| 2026-04-29 14:51 | 55.47359 | 91.90053 | 32378 ft | 464 kts | 282° |
| 2026-04-29 14:51 | 55.48016 | 91.78739 | 32376 ft | 464 kts | 282° |
| 2026-04-29 14:52 | 55.48662 | 91.67433 | 32374 ft | 463 kts | 281° |
| 2026-04-29 14:52 | 55.49298 | 91.56133 | 32385 ft | 463 kts | 281° |
| 2026-04-29 14:53 | 55.49920 | 91.44895 | 32381 ft | 463 kts | 281° |
| 2026-04-29 14:53 | 55.50538 | 91.33523 | 32381 ft | 463 kts | 281° |
| 2026-04-29 14:54 | 55.51144 | 91.22211 | 32391 ft | 463 kts | 281° |
| 2026-04-29 14:54 | 55.51663 | 91.10880 | 32383 ft | 465 kts | 277° |
| 2026-04-29 14:55 | 55.51415 | 90.99395 | 32380 ft | 470 kts | 272° |
| 2026-04-29 14:55 | 55.51009 | 90.87891 | 32388 ft | 470 kts | 272° |
| 2026-04-29 14:56 | 55.50614 | 90.76391 | 32389 ft | 470 kts | 272° |
| 2026-04-29 14:56 | 55.50232 | 90.64893 | 32401 ft | 470 kts | 272° |
| 2026-04-29 14:57 | 55.49847 | 90.53396 | 32389 ft | 470 kts | 272° |
| 2026-04-29 14:57 | 55.49454 | 90.41963 | 32397 ft | 470 kts | 272° |
| 2026-04-29 14:58 | 55.49046 | 90.30456 | 32399 ft | 470 kts | 272° |
| 2026-04-29 14:58 | 55.48627 | 90.18955 | 32393 ft | 470 kts | 272° |
| 2026-04-29 14:59 | 55.48197 | 90.07451 | 32405 ft | 470 kts | 271° |
| 2026-04-29 14:59 | 55.47757 | 89.95966 | 32407 ft | 470 kts | 271° |
| 2026-04-29 15:00 | 55.47305 | 89.84477 | 32411 ft | 469 kts | 271° |
| 2026-04-29 15:00 | 55.46844 | 89.73005 | 32414 ft | 469 kts | 271° |
| 2026-04-29 15:01 | 55.46372 | 89.61540 | 32409 ft | 469 kts | 271° |
| 2026-04-29 15:01 | 55.45890 | 89.50083 | 32411 ft | 469 kts | 271° |
| 2026-04-29 15:02 | 55.45398 | 89.38637 | 32415 ft | 468 kts | 271° |
| 2026-04-29 15:02 | 55.44895 | 89.27199 | 32417 ft | 468 kts | 270° |
| 2026-04-29 15:03 | 55.44381 | 89.15772 | 32418 ft | 468 kts | 270° |
| 2026-04-29 15:03 | 55.43857 | 89.04336 | 32413 ft | 468 kts | 270° |
| 2026-04-29 15:04 | 55.43326 | 88.92929 | 32421 ft | 468 kts | 270° |
| 2026-04-29 15:04 | 55.42785 | 88.81516 | 32428 ft | 468 kts | 270° |
| 2026-04-29 15:05 | 55.42238 | 88.70092 | 32423 ft | 468 kts | 270° |
| 2026-04-29 15:05 | 55.41683 | 88.58674 | 32425 ft | 468 kts | 270° |
| 2026-04-29 15:06 | 55.41118 | 88.47268 | 32408 ft | 468 kts | 270° |
| 2026-04-29 15:06 | 55.40541 | 88.35858 | 32421 ft | 467 kts | 269° |
| 2026-04-29 15:07 | 55.39954 | 88.24478 | 32417 ft | 467 kts | 269° |
| 2026-04-29 15:07 | 55.39357 | 88.13098 | 32413 ft | 467 kts | 269° |
| 2026-04-29 15:08 | 55.38750 | 88.01732 | 32416 ft | 466 kts | 269° |
| 2026-04-29 15:08 | 55.38133 | 87.90373 | 32414 ft | 467 kts | 269° |
| 2026-04-29 15:09 | 55.37506 | 87.79015 | 32406 ft | 467 kts | 269° |
| 2026-04-29 15:09 | 55.36977 | 87.69580 | 32403 ft | 467 kts | 269° |
| 2026-04-29 15:10 | 55.36331 | 87.58225 | 32402 ft | 467 kts | 269° |
| 2026-04-29 15:10 | 55.35678 | 87.46863 | 32396 ft | 467 kts | 268° |
| 2026-04-29 15:11 | 55.35021 | 87.35508 | 32395 ft | 467 kts | 268° |
| 2026-04-29 15:11 | 55.34355 | 87.24165 | 32398 ft | 467 kts | 268° |
| 2026-04-29 15:12 | 55.33677 | 87.12823 | 32386 ft | 467 kts | 268° |
| 2026-04-29 15:12 | 55.32990 | 87.01499 | 32381 ft | 466 kts | 268° |
| 2026-04-29 15:13 | 55.32292 | 86.90177 | 32386 ft | 466 kts | 268° |
| 2026-04-29 15:13 | 55.31585 | 86.78872 | 32376 ft | 465 kts | 268° |
| 2026-04-29 15:14 | 55.30868 | 86.67589 | 32377 ft | 465 kts | 268° |
| 2026-04-29 15:14 | 55.30140 | 86.56295 | 32368 ft | 465 kts | 267° |
| 2026-04-29 15:15 | 55.29401 | 86.45016 | 32379 ft | 466 kts | 267° |
| 2026-04-29 15:15 | 55.28652 | 86.33729 | 32373 ft | 466 kts | 267° |
| 2026-04-29 15:16 | 55.27895 | 86.22458 | 32372 ft | 466 kts | 267° |
| 2026-04-29 15:16 | 55.27128 | 86.11208 | 32236 ft | 462 kts | 267° |
| 2026-04-29 15:16 | 55.26783 | 86.05600 | 31909 ft | 463 kts | 268° |
| 2026-04-29 15:17 | 55.26504 | 85.99968 | 31605 ft | 464 kts | 269° |
| 2026-04-29 15:17 | 55.26250 | 85.94346 | 31394 ft | 462 kts | 269° |
| 2026-04-29 15:17 | 55.25999 | 85.88730 | 30926 ft | 462 kts | 269° |
| 2026-04-29 15:17 | 55.25742 | 85.83183 | 30204 ft | 451 kts | 269° |
| 2026-04-29 15:18 | 55.25481 | 85.77789 | 29513 ft | 436 kts | 268° |
| 2026-04-29 15:18 | 55.25220 | 85.72572 | 28903 ft | 423 kts | 268° |
| 2026-04-29 15:18 | 55.24965 | 85.67521 | 28333 ft | 410 kts | 268° |
| 2026-04-29 15:18 | 55.24714 | 85.62612 | 27788 ft | 399 kts | 268° |
| 2026-04-29 15:19 | 55.24468 | 85.57833 | 27247 ft | 388 kts | 268° |
| 2026-04-29 15:19 | 55.24227 | 85.53171 | 26745 ft | 383 kts | 267° |
| 2026-04-29 15:19 | 55.23986 | 85.48538 | 26289 ft | 381 kts | 267° |
| 2026-04-29 15:19 | 55.23746 | 85.43928 | 25829 ft | 379 kts | 267° |
| 2026-04-29 15:20 | 55.23503 | 85.39335 | 25367 ft | 378 kts | 266° |
| 2026-04-29 15:20 | 55.23260 | 85.34758 | 24917 ft | 377 kts | 266° |
| 2026-04-29 15:20 | 55.23014 | 85.30189 | 24481 ft | 376 kts | 266° |
| 2026-04-29 15:20 | 55.22768 | 85.25638 | 24040 ft | 373 kts | 266° |
| 2026-04-29 15:21 | 55.22524 | 85.21175 | 23524 ft | 363 kts | 266° |
| 2026-04-29 15:21 | 55.22285 | 85.16837 | 23051 ft | 353 kts | 266° |
| 2026-04-29 15:21 | 55.22050 | 85.12605 | 22583 ft | 348 kts | 266° |
| 2026-04-29 15:21 | 55.21814 | 85.08344 | 22156 ft | 354 kts | 266° |
| 2026-04-29 15:22 | 55.21574 | 85.04022 | 21719 ft | 358 kts | 266° |
| 2026-04-29 15:22 | 55.21330 | 84.99690 | 21295 ft | 358 kts | 266° |
| 2026-04-29 15:22 | 55.21085 | 84.95361 | 20869 ft | 356 kts | 266° |
| 2026-04-29 15:22 | 55.20839 | 84.91063 | 20468 ft | 353 kts | 266° |
| 2026-04-29 15:23 | 55.20596 | 84.86814 | 20079 ft | 350 kts | 266° |
| 2026-04-29 15:23 | 55.20352 | 84.82585 | 19681 ft | 347 kts | 266° |
| 2026-04-29 15:23 | 55.20110 | 84.78403 | 19286 ft | 344 kts | 266° |
| 2026-04-29 15:23 | 55.19867 | 84.74254 | 18919 ft | 342 kts | 265° |
| 2026-04-29 15:24 | 55.19620 | 84.70131 | 18522 ft | 339 kts | 264° |
| 2026-04-29 15:24 | 55.19157 | 84.66104 | 18086 ft | 337 kts | 257° |
| 2026-04-29 15:24 | 55.18487 | 84.62175 | 17666 ft | 336 kts | 254° |
| 2026-04-29 15:24 | 55.17772 | 84.58304 | 17247 ft | 334 kts | 254° |
| 2026-04-29 15:25 | 55.17071 | 84.54504 | 16854 ft | 331 kts | 254° |
| 2026-04-29 15:25 | 55.16379 | 84.50682 | 16474 ft | 329 kts | 255° |
| 2026-04-29 15:25 | 55.15700 | 84.46869 | 16098 ft | 327 kts | 255° |
| 2026-04-29 15:25 | 55.15033 | 84.43079 | 15723 ft | 326 kts | 255° |
| 2026-04-29 15:26 | 55.14372 | 84.39294 | 15352 ft | 325 kts | 255° |
| 2026-04-29 15:26 | 55.13715 | 84.35525 | 15014 ft | 323 kts | 255° |
| 2026-04-29 15:26 | 55.13069 | 84.31817 | 14682 ft | 322 kts | 255° |
| 2026-04-29 15:26 | 55.12409 | 84.28029 | 14356 ft | 322 kts | 255° |
| 2026-04-29 15:27 | 55.11766 | 84.24346 | 13998 ft | 321 kts | 255° |
| 2026-04-29 15:27 | 55.11118 | 84.20647 | 13619 ft | 314 kts | 255° |
| 2026-04-29 15:27 | 55.10490 | 84.17068 | 13230 ft | 302 kts | 255° |
| 2026-04-29 15:27 | 55.09886 | 84.13625 | 12866 ft | 291 kts | 254° |
| 2026-04-29 15:28 | 55.09295 | 84.10267 | 12501 ft | 281 kts | 254° |
| 2026-04-29 15:28 | 55.08917 | 84.08121 | 12301 ft | 279 kts | 254° |
| 2026-04-29 15:28 | 55.08152 | 84.03789 | 11856 ft | 280 kts | 255° |
| 2026-04-29 15:28 | 55.07732 | 84.00492 | 11533 ft | 278 kts | 263° |
| 2026-04-29 15:29 | 55.07518 | 83.97136 | 11224 ft | 278 kts | 265° |
| 2026-04-29 15:29 | 55.07171 | 83.90415 | 10642 ft | 278 kts | 265° |
| 2026-04-29 15:30 | 55.06798 | 83.83750 | 10053 ft | 277 kts | 265° |
| 2026-04-29 15:30 | 55.06602 | 83.80422 | 9766 ft | 273 kts | 264° |
| 2026-04-29 15:30 | 55.06404 | 83.77147 | 9500 ft | 270 kts | 264° |
| 2026-04-29 15:30 | 55.06205 | 83.73915 | 9226 ft | 267 kts | 264° |
| 2026-04-29 15:31 | 55.06005 | 83.70718 | 8960 ft | 264 kts | 264° |
| 2026-04-29 15:31 | 55.05806 | 83.67546 | 8703 ft | 262 kts | 264° |
| 2026-04-29 15:31 | 55.05607 | 83.64392 | 8451 ft | 261 kts | 264° |
| 2026-04-29 15:31 | 55.05407 | 83.61254 | 8197 ft | 260 kts | 264° |
| 2026-04-29 15:32 | 55.05206 | 83.58123 | 7949 ft | 259 kts | 264° |
| 2026-04-29 15:32 | 55.05006 | 83.55002 | 7700 ft | 258 kts | 264° |
| 2026-04-29 15:32 | 55.04806 | 83.51920 | 7457 ft | 252 kts | 264° |
| 2026-04-29 15:32 | 55.04613 | 83.48937 | 7397 ft | 244 kts | 264° |
| 2026-04-29 15:33 | 55.04422 | 83.45986 | 7348 ft | 247 kts | 264° |
| 2026-04-29 15:33 | 55.04227 | 83.42992 | 7362 ft | 251 kts | 264° |
| 2026-04-29 15:33 | 55.04027 | 83.39953 | 7352 ft | 253 kts | 264° |
| 2026-04-29 15:33 | 55.03826 | 83.36913 | 7339 ft | 252 kts | 263° |
| 2026-04-29 15:34 | 55.03599 | 83.33898 | 7235 ft | 251 kts | 256° |
| 2026-04-29 15:34 | 55.02812 | 83.31199 | 6930 ft | 252 kts | 232° |
| 2026-04-29 15:34 | 55.01730 | 83.28810 | 6648 ft | 252 kts | 233° |
| 2026-04-29 15:34 | 55.00653 | 83.26373 | 6337 ft | 254 kts | 233° |
| 2026-04-29 15:35 | 54.99582 | 83.23938 | 5997 ft | 251 kts | 233° |
| 2026-04-29 15:35 | 54.98539 | 83.21558 | 5642 ft | 243 kts | 233° |
| 2026-04-29 15:35 | 54.97539 | 83.19272 | 5354 ft | 232 kts | 233° |
| 2026-04-29 15:35 | 54.96571 | 83.17063 | 5112 ft | 230 kts | 232° |
| 2026-04-29 15:36 | 54.95596 | 83.14840 | 4921 ft | 232 kts | 232° |
| 2026-04-29 15:36 | 54.94619 | 83.12611 | 4675 ft | 230 kts | 232° |
| 2026-04-29 15:36 | 54.93789 | 83.10324 | 4377 ft | 220 kts | 252° |
| 2026-04-29 15:36 | 54.93739 | 83.07724 | 4136 ft | 217 kts | 283° |
| 2026-04-29 15:37 | 54.94363 | 83.05332 | 3901 ft | 221 kts | 304° |
| 2026-04-29 15:37 | 54.95365 | 83.03255 | 3646 ft | 228 kts | 309° |
| 2026-04-29 15:37 | 54.96441 | 83.01187 | 3377 ft | 231 kts | 309° |
| 2026-04-29 15:37 | 54.97509 | 82.99126 | 3062 ft | 227 kts | 309° |
| 2026-04-29 15:38 | 54.98543 | 82.97112 | 2805 ft | 220 kts | 309° |
| 2026-04-29 15:38 | 54.99547 | 82.95157 | 2534 ft | 213 kts | 308° |
| 2026-04-29 15:38 | 55.00497 | 82.93292 | 2376 ft | 201 kts | 308° |
| 2026-04-29 15:38 | 55.01419 | 82.91472 | 2128 ft | 199 kts | 308° |
| 2026-04-29 15:39 | 55.02315 | 82.89700 | 2059 ft | 193 kts | 307° |
| 2026-04-29 15:39 | 55.02907 | 82.87718 | 1976 ft | 181 kts | 270° |
| 2026-04-29 15:39 | 55.02885 | 82.85543 | 2031 ft | 183 kts | 263° |
| 2026-04-29 15:39 | 55.02827 | 82.83344 | 2040 ft | 175 kts | 262° |
| 2026-04-29 15:40 | 55.02711 | 82.81324 | 1978 ft | 161 kts | 258° |
| 2026-04-29 15:40 | 55.02548 | 82.79447 | 1750 ft | 153 kts | 256° |
| 2026-04-29 15:40 | 55.02382 | 82.77620 | 1539 ft | 153 kts | 256° |
| 2026-04-29 15:40 | 55.02216 | 82.75797 | 1329 ft | 152 kts | 257° |
| 2026-04-29 15:41 | 55.02051 | 82.73971 | 1118 ft | 154 kts | 258° |
| 2026-04-29 15:41 | 55.01883 | 82.72129 | 918 ft | 154 kts | 258° |
| 2026-04-29 15:41 | 55.01712 | 82.70275 | 695 ft | 155 kts | 259° |
| 2026-04-29 15:41 | 55.01548 | 82.68428 | 487 ft | 153 kts | 259° |
| 2026-04-29 15:42 | 55.01391 | 82.66624 | 388 ft | 142 kts | 260° |
| 2026-04-29 15:42 | 55.01248 | 82.65112 | 377 ft | 106 kts | 261° |
| 2026-04-29 15:42 | 55.01156 | 82.64106 | 379 ft | 62 kts | 261° |
| 2026-04-29 15:42 | 55.01109 | 82.63575 | 378 ft | 39 kts | 261° |
| 2026-04-29 15:43 | 55.01067 | 82.63129 | 377 ft | 36 kts | 261° |
| 2026-04-29 15:43 | 55.01030 | 82.62714 | 376 ft | 33 kts | 261° |
| 2026-04-29 15:43 | 55.01014 | 82.62396 | 379 ft | 22 kts | 256° |
| 2026-04-29 15:43 | 55.00959 | 82.62328 | 379 ft | 8 kts | 150° |
| 2026-04-29 15:44 | 55.00971 | 82.62407 | 379 ft | 8 kts | 46° |
| 2026-04-29 15:44 | 55.01002 | 82.62484 | 379 ft | 8 kts | 66° |
| 2026-04-29 15:44 | 55.01018 | 82.62581 | 378 ft | 9 kts | 78° |
| 2026-04-29 15:44 | 55.01029 | 82.62706 | 376 ft | 13 kts | 82° |
| 2026-04-29 15:45 | 55.01043 | 82.62879 | 376 ft | 16 kts | 82° |
| 2026-04-29 15:45 | 55.01061 | 82.63073 | 375 ft | 17 kts | 81° |
| 2026-04-29 15:45 | 55.01083 | 82.63300 | 377 ft | 20 kts | 80° |
| 2026-04-29 15:45 | 55.01104 | 82.63537 | 377 ft | 20 kts | 81° |
| 2026-04-29 15:46 | 55.01126 | 82.63769 | 378 ft | 13 kts | 80° |
| 2026-04-29 15:46 | 55.01135 | 82.63931 | 379 ft | 9 kts | 103° |
| 2026-04-29 15:46 | 55.01079 | 82.63991 | 379 ft | 11 kts | 168° |
| 2026-04-29 15:46 | 55.01017 | 82.64010 | 378 ft | 0 kts | 172° |
| 2026-04-29 15:49 | 55.01001 | 82.64014 | 378 ft | 5 kts | 172° |
| 2026-04-29 15:49 | 55.00957 | 82.64024 | 377 ft | 8 kts | 172° |
| 2026-04-29 15:50 | 55.00891 | 82.64041 | 377 ft | 11 kts | 173° |
| 2026-04-29 15:50 | 55.00836 | 82.64076 | 377 ft | 9 kts | 134° |
| 2026-04-29 15:50 | 55.00822 | 82.64175 | 377 ft | 7 kts | 115° |
| 2026-04-29 15:50 | 55.00787 | 82.64203 | 377 ft | 7 kts | 177° |
| 2026-04-29 15:51 | 55.00768 | 82.64207 | 377 ft | 2 kts | 174° |
| 2026-04-29 15:51 | 55.00757 | 82.64209 | 377 ft | 0 kts | 173° |
| 2026-04-29 15:51 | 55.00747 | 82.64211 | 377 ft | 0 kts | 176° |
| 2026-04-29 15:52 | 55.00742 | 82.64213 | 377 ft | 0 kts | 172° |